Terminal Aerodrome Forecast
Issued by NWS Riverton, WY

Home | Current Version | Previous Version | Text Only | Print | Product List | Glossary On
Versions: 1 2 3 4 5 6 7 8 9 10 11 12 13 14 15 16 17 18 19 20 21
000
FTUS45 KRIW 261159 AAA
TAFRIW
TAF AMD
KRIW 261159Z 2612/2712 27006KT P6SM VCFG FEW001 SCT060 BKN090
      TEMPO 2612/2614 2SM BR SCT001
     FM261500 29011KT P6SM SCT060 BKN090
     FM270200 22006KT P6SM SCT050 BKN080
     FM270800 31013G19KT P6SM VCSH BKN050=

USA.gov is the U.S. government's official web portal to all federal, state and local government web resources and services.